x

South Hecate Strait (46185) Wave Buoy

9:00pm - Tue 25th Jul 2017 All times are PDT. -7 hours from GMT.

  • Sig Wave height 1.6ft
  • Peak Period 3s
  • Wind
    11mph, 13mph gusts
  • Sea Temp 60°f
  • Air Temp 58°f
  • Sea Pressure 1017.4mb
  • South Hecate Strait
  • South Hecate Strait

More Historic Weather Station data

Upgrade to MSW Pro to gain access to the past 30 days of data for over 8000 Wavebouys and Weather Stations around the globe.

Join Pro

Comparision Forecast

View Surf forecast
   
Tue 07/25 9:00pm 1.6ft 3s 11 13 mph 1017.4mb 60f 58f
8:00pm 1.6ft 3s 11 13 mph 1017.6mb 60f 57f
7:00pm 1.6ft 3s 11 13 mph 1017.7mb 60f 57f
6:00pm 1.6ft 14s 11 13 mph 1018.3mb 60f 58f
5:00pm 2ft 13s 9 11 mph 1018.6mb 58f 58f
4:00pm 2ft 17s 9 13 mph 1018.9mb 58f 57f
3:00pm 1.6ft 17s 9 11 mph 1019.3mb 59f 57f
2:00pm 1.3ft 14s 9 11 mph 1019.5mb 60f 58f
1:00pm 1.3ft 14s 7 9 mph 1019.7mb 60f 58f
12:00pm 1ft 14s 7 7 mph 1019.8mb 60f 58f
11:00am 1ft 15s 4 4 mph 1019.8mb 61f 58f
10:00am 1ft 17s 4 4 mph 1020.2mb 60f 57f
9:00am 1ft 12s 2 4 mph 1020.1mb 59f 57f
8:00am 1.3ft 14s 2 4 mph 1019.8mb 59f 57f
7:00am 1.3ft 14s 2 2 mph 1019.8mb 59f 57f
6:00am 1.3ft 14s 4 4 mph 1019.5mb 59f 56f
5:00am 1.3ft 14s 2 2 mph 1019.1mb 59f 56f
4:00am 1.6ft 14s 2 2 mph 1019.1mb 59f 56f
3:00am 1.6ft 14s  -  2 mph 1019.2mb 59f 56f
2:00am 1.3ft 15s 2 4 mph 1019.3mb 59f 56f
1:00am 1.3ft 14s 2 4 mph 1019.5mb 59f 56f
12:00am 1.6ft 14s 4 4 mph 1019.6mb 60f 57f
Mon 07/24 11:00pm 1.6ft 14s 4 4 mph 1019.7mb 60f 57f
10:00pm 1.6ft 14s 4 7 mph 1019.9mb 60f 57f
9:00pm 2ft 14s 7 9 mph 1020mb 60f 57f
8:00pm 1.6ft 14s 9 9 mph 1020mb 60f 58f
7:00pm 2ft 4s 9 9 mph 1020mb 60f 58f
6:00pm 2.5ft 4s 9 9 mph 1020.2mb 60f 58f
5:00pm 2.5ft 4s 11 13 mph 1020.6mb 60f 57f
4:00pm 2.5ft 4s 11 16 mph 1020.9mb 60f 57f
3:00pm 2.5ft 4s 13 16 mph 1020.8mb 60f 57f
2:00pm 2.5ft 4s 13 16 mph 1020.8mb 60f 57f
1:00pm 3ft 5s 16 16 mph 1021mb 59f 57f
12:00pm 3ft 5s 13 16 mph 1021.4mb 59f 57f
11:00am 3.5ft 5s 16 18 mph 1021.4mb 59f 57f
10:00am 3.5ft 5s 16 20 mph 1021.5mb 59f 57f
9:00am 3.5ft 5s 18 22 mph 1021.9mb 59f 57f
8:00am 3.5ft 5s 18 22 mph 1022mb 59f 57f
7:00am 3.5ft 4s 18 22 mph 1022.1mb 59f 57f
6:00am 3.5ft 4s 20 22 mph 1021.9mb 59f 57f
5:00am 3.5ft 4s 20 22 mph 1021.9mb 59f 57f
4:00am 3.5ft 4s 20 25 mph 1022mb 59f 57f
3:00am  -   -  18
mph
- - -
2:00am 2.5ft 13s 16 18 mph 1022.9mb 59f 57f
1:00am 2.5ft 13s 18 20 mph 1023.1mb 60f 58f
12:00am 2.5ft 11s 16 20 mph 1023.5mb 60f 58f
Sun 07/23 11:00pm 2ft 14s 16 18 mph 1023.8mb 60f 58f
10:00pm 2ft 13s 11 13 mph 1024.1mb 60f 57f
9:00pm 2ft 13s 11 13 mph 1024.2mb 60f 58f
8:00pm 2ft 14s 9 11 mph 1024.4mb 59f 58f
7:00pm 2ft 14s 11 13 mph 1024.8mb 60f 58f
6:00pm 2.5ft 15s 11 13 mph 1024.8mb 60f 58f
5:00pm 2.5ft 8s 9 11 mph 1025.2mb 60f 58f
4:00pm 2.5ft 7s 11 13 mph 1025.3mb 60f 57f
3:00pm 2.5ft 7s 9 11 mph 1025.1mb 60f 57f
2:00pm 3ft 6s 11 13 mph 1025.1mb 60f 57f
1:00pm 3ft 7s 11 11 mph 1025.1mb 60f 57f
12:00pm 3ft 7s 7 9 mph 1024.9mb 60f 57f
11:00am 2.5ft 7s 7 9 mph 1024.6mb 60f 57f
10:00am 2.5ft 14s 9 9 mph 1024.3mb 60f 56f
9:00am 2.5ft 14s 11 13 mph 1024.4mb 59f 56f
8:00am 2.5ft 14s 9 11 mph 1024.1mb 58f 57f
7:00am 2.5ft 7s 7 9 mph 1023.5mb 58f 56f
6:00am 2.5ft 14s 9 11 mph 1023.4mb 58f 56f
5:00am 3ft 6s 9 11 mph 1022.9mb 58f 56f
4:00am 3ft 8s 7 9 mph 1022.7mb 58f 57f
3:00am 3ft 8s 7 9 mph 1022.4mb 58f 57f
2:00am 3.5ft 6s 9 9 mph 1022.2mb 58f 57f
1:00am 3.5ft 6s 9 11 mph 1022.2mb 59f 57f
12:00am 3.5ft 7s 9 11 mph 1022.1mb 59f 57f
Sat 07/22 11:00pm 3.5ft 6s 7 9 mph 1022.1mb 59f 57f
10:00pm 3.5ft 7s 7 9 mph 1022.2mb 59f 57f
9:00pm 3ft 7s 9 11 mph 1022.1mb 59f 57f
8:00pm 3ft 8s 11 13 mph 1021.8mb 59f 57f
7:00pm 3.5ft 7s 11 11 mph 1021.8mb 58f 57f
6:00pm 3.5ft 7s 9 13 mph 1021.6mb 58f 57f
5:00pm 3.5ft 7s 11 13 mph 1021.5mb 58f 57f
4:00pm 3.5ft 7s 11 13 mph 1021.2mb 58f 57f
3:00pm 3.5ft 7s 9 11 mph 1020.9mb 58f 56f
2:00pm 4.5ft 7s 13 16 mph 1020.8mb 58f 54f
1:00pm 4.5ft 7s 13 16 mph 1020.1mb 58f 56f
12:00pm 5ft 7s 11 13 mph 1019.4mb 58f 56f
11:00am 5ft 7s 16 20 mph 1018.5mb 58f 56f
10:00am 6ft 8s 16 20 mph 1018mb 58f 55f
9:00am 6ft 7s 13 16 mph 1017.5mb 58f 57f
8:00am 7ft 8s 11 16 mph 1016.9mb 58f 57f
7:00am 7.5ft 8s 13 16 mph 1016mb 58f 57f
6:00am 8ft 8s 11 16 mph 1015.1mb 58f 57f